CheckWX is a tool to help pilots better visualize weather data.  It is not intended as a substitute for an official pre-flight weather briefing.

12:50:31 UTC

KRBL METAR
Red Bluff Municipal Airport
Red Bluff, California, USA
Current

57 mins ago

KRBL 131154Z AUTO 01004KT 10SM CLR 10/05 A2999 RMK AO2 SLP154 T01000050 10139 20100 56002
Observed
Nov-13 @ 11:54 UTC
Wind
  • 010° at 4 KTS
Visibility
10 SM
Flight Rules
VFR
Cloud Levels
  • Clear skies
Temperature
10°C / 50°F
Dewpoint
C / 41°F
Humidity
71%
Altimeter
29.99" Hg
Pressure
1015.62 hPa
Previous

2 hours ago

KRBL 131054Z AUTO 32005KT 10SM CLR 12/06 A2999 RMK AO2 SLP154 T01220056
Observed
Nov-13 @ 10:54 UTC
Wind
  • 320° at 5 KTS
Visibility
10 SM
Flight Rules
VFR
Cloud Levels
  • Clear skies
Temperature
12°C / 54°F
Dewpoint
C / 43°F
Humidity
67%
Altimeter
29.99" Hg
Pressure
1015.62 hPa
Previous

3 hours ago

KRBL 130954Z AUTO 33006KT 10SM CLR 12/06 A2999 RMK AO2 SLP154 T01220056
Observed
Nov-13 @ 09:54 UTC
Wind
  • 330° at 6 KTS
Visibility
10 SM
Flight Rules
VFR
Cloud Levels
  • Clear skies
Temperature
12°C / 54°F
Dewpoint
C / 43°F
Humidity
67%
Altimeter
29.99" Hg
Pressure
1015.62 hPa